createdAt,value
2024-04-15T00:01:24.991Z,101144.03
2024-04-15T00:03:51.643Z,101138.97
2024-04-15T00:06:18.566Z,101136.97
2024-04-15T00:08:45.195Z,101129.00
2024-04-15T00:11:13.061Z,101119.25
2024-04-15T00:13:40.001Z,101112.66
2024-04-15T00:16:10.824Z,101120.53
2024-04-15T00:18:38.636Z,101111.72
2024-04-15T00:21:09.933Z,101114.06
2024-04-15T00:23:36.615Z,101102.41
2024-04-15T00:26:03.988Z,101092.50
2024-04-15T00:28:30.954Z,101097.00
2024-04-15T00:30:57.962Z,101104.25
2024-04-15T00:33:25.083Z,101097.09
2024-04-15T00:35:51.851Z,101096.75
2024-04-15T00:38:18.693Z,101098.25
2024-04-15T00:40:45.535Z,101097.47
2024-04-15T00:43:12.369Z,101092.63
2024-04-15T00:45:39.813Z,101086.09
2024-04-15T00:48:09.163Z,101072.09
2024-04-15T00:50:38.957Z,101075.47
2024-04-15T00:53:07.707Z,101063.31
2024-04-15T00:55:37.005Z,101066.47
2024-04-15T00:58:04.764Z,101059.56
2024-04-15T01:00:32.140Z,101072.31
2024-04-15T01:02:58.932Z,101072.00
2024-04-15T01:05:25.708Z,101067.50
2024-04-15T01:07:52.455Z,101076.34
2024-04-15T01:10:19.753Z,101072.88
2024-04-15T01:12:46.626Z,101063.56
2024-04-15T01:15:13.346Z,101058.38
2024-04-15T01:17:40.166Z,101053.97
2024-04-15T01:20:07.210Z,101046.94
2024-04-15T01:22:49.714Z,101032.88
2024-04-15T01:25:16.479Z,101037.88
2024-04-15T01:27:43.361Z,101039.22
2024-04-15T01:30:10.586Z,101034.25
2024-04-15T01:32:37.282Z,101034.06
2024-04-15T01:35:04.177Z,101033.81
2024-04-15T01:37:30.814Z,101024.41
2024-04-15T01:39:57.580Z,101020.41
2024-04-15T01:42:24.341Z,101029.28
2024-04-15T01:44:51.003Z,101027.69
2024-04-15T01:47:17.726Z,101020.94
2024-04-15T01:49:44.461Z,101010.19
2024-04-15T01:52:11.231Z,101007.84
2024-04-15T01:54:37.958Z,101017.22
2024-04-15T01:57:04.760Z,101006.81
2024-04-15T01:59:31.422Z,101005.81
2024-04-15T02:01:58.009Z,100995.56
2024-04-15T02:04:24.737Z,100992.19
2024-04-15T02:06:51.817Z,100989.50
2024-04-15T02:09:19.378Z,100990.84
2024-04-15T02:11:46.045Z,100988.34
2024-04-15T02:14:12.683Z,100984.41
2024-04-15T02:16:39.424Z,100985.38
2024-04-15T02:19:06.024Z,100991.84
2024-04-15T02:21:32.996Z,100984.03
2024-04-15T02:23:59.744Z,100978.75
2024-04-15T02:26:26.516Z,100971.09
2024-04-15T02:28:53.186Z,100967.97
2024-04-15T02:31:19.850Z,100960.03
2024-04-15T02:33:46.625Z,100950.81
2024-04-15T02:36:13.581Z,100946.34
2024-04-15T02:38:40.218Z,100950.31
2024-04-15T02:41:06.887Z,100943.28
2024-04-15T02:43:33.494Z,100940.44
2024-04-15T02:46:00.380Z,100935.03
2024-04-15T02:48:27.075Z,100936.75
2024-04-15T02:50:53.691Z,100920.22
2024-04-15T02:53:20.319Z,100911.34
2024-04-15T02:55:46.948Z,100914.56
2024-04-15T02:58:13.671Z,100907.81
2024-04-15T03:00:40.444Z,100903.00
2024-04-15T03:03:07.111Z,100917.25
2024-04-15T03:05:34.473Z,100917.06
2024-04-15T03:08:01.093Z,100916.72
2024-04-15T03:10:28.186Z,100916.22
2024-04-15T03:12:56.292Z,100914.78
2024-04-15T03:15:22.999Z,100914.25
2024-04-15T03:17:50.272Z,100905.56
2024-04-15T03:20:18.087Z,100906.25
2024-04-15T03:22:51.405Z,100897.13
2024-04-15T03:25:22.229Z,100902.88
2024-04-15T03:27:50.124Z,100905.50
2024-04-15T03:30:17.246Z,100894.31
2024-04-15T03:32:44.030Z,100887.63
2024-04-15T03:35:15.889Z,100887.84
2024-04-15T03:37:43.878Z,100895.19
2024-04-15T03:40:11.582Z,100884.22
2024-04-15T03:42:38.362Z,100871.88
2024-04-15T03:45:05.703Z,100871.97
2024-04-15T03:47:32.702Z,100867.53
2024-04-15T03:49:59.364Z,100860.34
2024-04-15T03:52:26.040Z,100854.72
2024-04-15T03:54:52.696Z,100855.16
2024-04-15T03:57:20.214Z,100852.06
2024-04-15T03:59:47.151Z,100855.34
2024-04-15T04:02:13.916Z,100846.13
2024-04-15T04:04:41.845Z,100831.50
2024-04-15T04:07:08.724Z,100845.34
2024-04-15T04:09:35.353Z,100834.94
2024-04-15T04:12:01.968Z,100833.28
2024-04-15T04:14:29.412Z,100834.72
2024-04-15T04:16:55.987Z,100832.03
2024-04-15T04:19:23.450Z,100825.50
2024-04-15T04:21:50.163Z,100823.38
2024-04-15T04:24:16.849Z,100826.84
2024-04-15T04:26:43.479Z,100822.47
2024-04-15T04:29:10.304Z,100819.75
2024-04-15T04:31:40.389Z,100819.56
2024-04-15T04:34:07.081Z,100816.19
2024-04-15T04:36:33.714Z,100825.22
2024-04-15T04:39:00.348Z,100804.16
2024-04-15T04:41:27.004Z,100812.63
2024-04-15T04:43:54.493Z,100811.44
2024-04-15T04:46:21.182Z,100804.59
2024-04-15T04:48:47.876Z,100806.41
2024-04-15T04:51:14.512Z,100807.53
2024-04-15T04:53:41.173Z,100812.91
2024-04-15T04:56:08.870Z,100818.66
2024-04-15T04:58:35.441Z,100809.97
2024-04-15T05:01:11.715Z,100815.25
2024-04-15T05:03:49.459Z,100819.91
2024-04-15T05:06:17.716Z,100817.06
2024-04-15T05:08:46.442Z,100813.81
2024-04-15T05:11:13.799Z,100825.22
2024-04-15T05:13:40.652Z,100822.47
2024-04-15T05:16:08.660Z,100813.25
2024-04-15T05:18:37.322Z,100812.41
2024-04-15T05:21:05.509Z,100805.47
2024-04-15T05:23:32.556Z,100779.31
2024-04-15T05:26:01.535Z,100776.94
2024-04-15T05:28:28.426Z,100772.44
2024-04-15T05:30:57.283Z,100768.66
2024-04-15T05:33:24.872Z,100771.03
2024-04-15T05:35:51.768Z,100771.63
2024-04-15T05:38:18.699Z,100761.41
2024-04-15T05:40:46.350Z,100744.06
2024-04-15T05:43:14.409Z,100760.28
2024-04-15T05:45:42.012Z,100749.84
2024-04-15T05:48:09.066Z,100754.44
2024-04-15T05:50:35.714Z,100759.09
2024-04-15T05:53:02.773Z,100749.25
2024-04-15T05:55:29.403Z,100751.41
2024-04-15T05:57:56.018Z,100759.47
2024-04-15T06:00:25.172Z,100751.75
2024-04-15T06:02:51.821Z,100762.81
2024-04-15T06:05:18.763Z,100747.22
2024-04-15T06:07:45.437Z,100755.03
2024-04-15T06:10:12.412Z,100747.06
2024-04-15T06:12:41.129Z,100736.34
2024-04-15T06:15:11.044Z,100729.72
2024-04-15T06:17:38.083Z,100733.34
2024-04-15T06:20:05.167Z,100718.13
2024-04-15T06:22:31.871Z,100702.69
2024-04-15T06:24:58.540Z,100706.75
2024-04-15T06:27:25.144Z,100699.25
2024-04-15T06:29:51.748Z,100698.72
2024-04-15T06:32:18.369Z,100690.06
2024-04-15T06:34:45.008Z,100688.97
2024-04-15T06:37:11.676Z,100674.69
2024-04-15T06:39:38.894Z,100679.63
2024-04-15T06:42:05.635Z,100676.41
2024-04-15T06:44:32.919Z,100666.44
2024-04-15T06:46:59.754Z,100656.50
2024-04-15T06:49:26.574Z,100660.41
2024-04-15T06:51:53.266Z,100648.84
2024-04-15T06:54:19.947Z,100649.22
2024-04-15T06:56:46.564Z,100637.00
2024-04-15T06:59:13.569Z,100620.28
2024-04-15T07:01:40.581Z,100622.03
2024-04-15T07:04:08.388Z,100618.88
2024-04-15T07:06:35.247Z,100614.28
2024-04-15T07:09:01.939Z,100603.09
2024-04-15T07:11:28.889Z,100604.53
2024-04-15T07:13:55.631Z,100600.25
2024-04-15T07:16:22.459Z,100604.53
2024-04-15T07:18:49.206Z,100603.25
2024-04-15T07:21:16.014Z,100601.91
2024-04-15T07:23:46.031Z,100599.84
2024-04-15T07:26:12.902Z,100595.59
2024-04-15T07:28:39.518Z,100581.41
2024-04-15T07:31:07.144Z,100582.81
2024-04-15T07:33:33.919Z,100575.97
2024-04-15T07:36:01.775Z,100561.56
2024-04-15T07:38:28.701Z,100566.84
2024-04-15T07:40:55.396Z,100554.28
2024-04-15T07:43:22.177Z,100548.50
2024-04-15T07:45:49.082Z,100547.84
2024-04-15T07:48:16.625Z,100535.91
2024-04-15T07:50:43.513Z,100543.16
2024-04-15T07:53:10.389Z,100530.44
2024-04-15T07:55:37.034Z,100524.06
2024-04-15T07:58:03.946Z,100516.47
2024-04-15T08:00:30.583Z,100512.50
2024-04-15T08:02:57.522Z,100514.38
2024-04-15T08:05:24.156Z,100503.53
2024-04-15T08:07:53.461Z,100508.47
2024-04-15T08:10:20.444Z,100503.72
2024-04-15T08:12:47.570Z,100489.66
2024-04-15T08:15:14.547Z,100482.53
2024-04-15T08:17:41.275Z,100478.72
2024-04-15T08:20:09.347Z,100475.53
2024-04-15T08:22:36.011Z,100477.44
2024-04-15T08:25:10.031Z,100466.06
2024-04-15T08:27:38.773Z,100470.13
2024-04-15T08:30:06.068Z,100465.72
2024-04-15T08:32:33.290Z,100465.19
2024-04-15T08:35:00.093Z,100454.06
2024-04-15T08:37:26.994Z,100461.53
2024-04-15T08:39:53.746Z,100447.84
2024-04-15T08:42:31.607Z,100454.59
2024-04-15T08:45:00.749Z,100452.75
2024-04-15T08:47:31.993Z,100446.78
2024-04-15T08:49:59.313Z,100449.00
2024-04-15T08:52:26.232Z,100431.09
2024-04-15T08:54:53.215Z,100429.38
2024-04-15T08:57:20.921Z,100427.72
2024-04-15T08:59:47.577Z,100417.53
2024-04-15T09:02:17.595Z,100416.06
2024-04-15T09:04:44.722Z,100415.06
2024-04-15T09:07:11.870Z,100405.72
2024-04-15T09:09:38.605Z,100400.31
2024-04-15T09:12:05.482Z,100390.31
2024-04-15T09:14:33.775Z,100390.31
2024-04-15T09:17:02.635Z,100404.28
2024-04-15T09:19:30.618Z,100404.91
2024-04-15T09:22:03.517Z,100387.44
2024-04-15T09:24:30.220Z,100389.88
2024-04-15T09:26:56.821Z,100385.75
2024-04-15T09:29:23.447Z,100371.50
2024-04-15T09:31:50.144Z,100369.00
2024-04-15T09:34:17.215Z,100386.34
2024-04-15T09:36:46.216Z,100368.50
2024-04-15T09:39:14.425Z,100368.13
2024-04-15T09:41:43.359Z,100363.94
2024-04-15T09:44:13.446Z,100347.53
2024-04-15T09:46:42.412Z,100358.03
2024-04-15T09:49:11.437Z,100348.19
2024-04-15T09:51:42.201Z,100339.97
2024-04-15T09:54:10.956Z,100329.69
2024-04-15T09:56:48.851Z,100326.38
2024-04-15T09:59:16.905Z,100331.94
2024-04-15T10:01:46.987Z,100325.75
2024-04-15T10:04:25.213Z,100317.88
2024-04-15T10:06:59.328Z,100305.88
2024-04-15T10:09:26.240Z,100288.06
2024-04-15T10:11:53.460Z,100280.06
2024-04-15T10:14:23.221Z,100271.56
2024-04-15T10:16:50.849Z,100269.13
2024-04-15T10:19:26.479Z,100261.72
2024-04-15T10:21:53.688Z,100258.19
2024-04-15T10:24:32.729Z,100257.47
2024-04-15T10:27:00.704Z,100238.16
2024-04-15T10:29:29.967Z,100244.78
2024-04-15T10:31:58.391Z,100235.31
2024-04-15T10:34:27.703Z,100245.06
2024-04-15T10:36:56.501Z,100230.34
2024-04-15T10:39:25.327Z,100226.66
2024-04-15T10:41:52.599Z,100221.72
2024-04-15T10:44:19.326Z,100210.88
2024-04-15T10:46:47.766Z,100208.97
2024-04-15T10:49:15.803Z,100205.34
2024-04-15T10:51:44.119Z,100194.56
2024-04-15T10:54:10.751Z,100190.34
2024-04-15T10:56:37.447Z,100187.41
2024-04-15T10:59:04.598Z,100181.06
2024-04-15T11:01:31.499Z,100172.91
2024-04-15T11:03:58.664Z,100152.94
2024-04-15T11:06:25.510Z,100151.06
2024-04-15T11:08:52.115Z,100157.59
2024-04-15T11:11:21.829Z,100140.66
2024-04-15T11:13:49.651Z,100134.28
2024-04-15T11:16:16.644Z,100129.31
2024-04-15T11:18:43.374Z,100114.41
2024-04-15T11:21:10.324Z,100114.47
2024-04-15T11:23:37.478Z,100106.66
2024-04-15T11:26:06.068Z,100096.94
2024-04-15T11:28:34.580Z,100092.84
2024-04-15T11:31:02.311Z,100092.34
2024-04-15T11:33:29.547Z,100073.00
2024-04-15T11:35:56.368Z,100063.72
2024-04-15T11:38:23.570Z,100071.00
2024-04-15T11:40:51.386Z,100046.72
2024-04-15T11:43:19.048Z,100047.63
2024-04-15T11:45:52.109Z,100033.47
2024-04-15T11:48:19.260Z,100030.78
2024-04-15T11:50:45.931Z,100029.81
2024-04-15T11:53:12.586Z,100013.56
2024-04-15T11:55:39.732Z,100006.81
2024-04-15T11:58:08.447Z,99999.78
2024-04-15T12:00:35.396Z,99999.34
2024-04-15T12:03:02.546Z,99992.56
2024-04-15T12:05:29.280Z,99982.03
2024-04-15T12:07:57.606Z,99971.03
2024-04-15T12:10:24.340Z,99970.31
2024-04-15T12:12:51.145Z,99966.69
2024-04-15T12:15:17.841Z,99948.84
2024-04-15T12:17:45.870Z,99939.22
2024-04-15T12:20:12.554Z,99941.66
2024-04-15T12:22:39.168Z,99934.91
2024-04-15T12:25:08.838Z,99917.06
2024-04-15T12:27:40.624Z,99920.59
2024-04-15T12:30:10.985Z,99899.88
2024-04-15T12:32:41.120Z,99889.97
2024-04-15T12:35:08.090Z,99887.22
2024-04-15T12:37:35.590Z,99876.16
2024-04-15T12:40:06.550Z,99864.13
2024-04-15T12:42:33.212Z,99872.66
2024-04-15T12:44:59.821Z,99865.16
2024-04-15T12:47:26.682Z,99860.81
2024-04-15T12:49:53.602Z,99851.19
2024-04-15T12:52:20.279Z,99871.41
2024-04-15T12:54:49.403Z,99879.53
2024-04-15T12:57:17.696Z,99878.81
2024-04-15T12:59:44.466Z,99901.69
2024-04-15T13:02:11.355Z,99903.38
2024-04-15T13:04:38.514Z,99880.03
2024-04-15T13:07:05.506Z,99884.69
2024-04-15T13:09:32.235Z,99883.28
2024-04-15T13:11:59.080Z,99869.28
2024-04-15T13:14:25.689Z,99865.47
2024-04-15T13:16:52.287Z,99855.78
2024-04-15T13:19:19.197Z,99849.78
2024-04-15T13:21:46.000Z,99844.22
2024-04-15T13:24:12.616Z,99846.81
2024-04-15T13:26:39.226Z,99847.72
2024-04-15T13:29:05.825Z,99834.22
2024-04-15T13:31:32.804Z,99835.28
2024-04-15T13:33:59.812Z,99818.16
2024-04-15T13:36:26.749Z,99812.09
2024-04-15T13:38:53.688Z,99809.53
2024-04-15T13:41:20.323Z,99800.59
2024-04-15T13:43:47.007Z,99781.22
2024-04-15T13:46:14.788Z,99778.59
2024-04-15T13:48:41.805Z,99765.78
2024-04-15T13:51:08.604Z,99775.38
2024-04-15T13:53:35.222Z,99765.69
2024-04-15T13:56:02.019Z,99752.94
2024-04-15T13:58:29.141Z,99748.25
2024-04-15T14:00:57.616Z,99739.41
2024-04-15T14:03:24.764Z,99739.22
2024-04-15T14:05:52.093Z,99760.38
2024-04-15T14:08:19.143Z,99763.72
2024-04-15T14:10:46.303Z,99769.69
2024-04-15T14:13:14.198Z,99790.81
2024-04-15T14:15:41.542Z,99776.47
2024-04-15T14:18:08.834Z,99751.84
2024-04-15T14:20:35.530Z,99737.25
2024-04-15T14:23:02.109Z,99717.53
2024-04-15T14:25:28.734Z,99712.94
2024-04-15T14:27:55.755Z,99692.03
2024-04-15T14:30:22.432Z,99688.75
2024-04-15T14:32:50.500Z,99681.53
2024-04-15T14:35:18.289Z,99673.84
2024-04-15T14:37:46.182Z,99671.00
2024-04-15T14:40:21.821Z,99656.47
2024-04-15T14:42:51.102Z,99653.19
2024-04-15T14:45:18.131Z,99657.38
2024-04-15T14:47:46.157Z,99650.22
2024-04-15T14:50:13.138Z,99641.88
2024-04-15T14:52:39.726Z,99642.31
2024-04-15T14:55:06.520Z,99642.25
2024-04-15T14:57:33.698Z,99634.31
2024-04-15T15:00:00.602Z,99631.81
2024-04-15T15:02:27.394Z,99635.56
2024-04-15T15:04:54.023Z,99628.06
2024-04-15T15:07:20.762Z,99613.50
2024-04-15T15:09:47.479Z,99612.44
2024-04-15T15:12:14.727Z,99599.00
2024-04-15T15:14:41.318Z,99603.56
2024-04-15T15:17:09.202Z,99603.47
2024-04-15T15:19:36.581Z,99594.38
2024-04-15T15:22:03.494Z,99576.00
2024-04-15T15:24:30.193Z,99559.94
2024-04-15T15:26:56.976Z,99550.47
2024-04-15T15:29:23.986Z,99548.06
2024-04-15T15:31:50.610Z,99553.38
2024-04-15T15:34:17.419Z,99567.03
2024-04-15T15:36:44.436Z,99563.44
2024-04-15T15:39:11.152Z,99556.47
2024-04-15T15:41:37.841Z,99542.13
2024-04-15T15:44:04.651Z,99541.25
2024-04-15T15:46:31.544Z,99536.50
2024-04-15T15:48:58.263Z,99540.00
2024-04-15T15:51:24.904Z,99534.22
2024-04-15T15:53:51.514Z,99533.16
2024-04-15T15:56:18.573Z,99519.91
2024-04-15T15:58:45.867Z,99506.44
2024-04-15T16:01:12.558Z,99503.13
2024-04-15T16:03:39.412Z,99493.94
2024-04-15T16:06:08.259Z,99477.50
2024-04-15T16:08:34.874Z,99482.53
2024-04-15T16:11:01.514Z,99474.94
2024-04-15T16:13:28.864Z,99469.50
2024-04-15T16:15:55.574Z,99454.34
2024-04-15T16:18:22.616Z,99457.13
2024-04-15T16:20:49.473Z,99451.81
2024-04-15T16:23:16.094Z,99454.91
2024-04-15T16:25:42.838Z,99444.81
2024-04-15T16:28:09.476Z,99438.53
2024-04-15T16:30:36.216Z,99432.25
2024-04-15T16:33:03.143Z,99425.28
2024-04-15T16:35:29.948Z,99410.63
2024-04-15T16:37:56.618Z,99401.38
2024-04-15T16:40:23.346Z,99398.41
2024-04-15T16:42:49.975Z,99395.09
2024-04-15T16:45:17.019Z,99391.25
2024-04-15T16:47:44.729Z,99387.81
2024-04-15T16:50:11.616Z,99375.47
2024-04-15T16:52:39.559Z,99374.28
2024-04-15T16:55:06.528Z,99370.13
2024-04-15T16:57:33.199Z,99358.09
2024-04-15T16:59:59.792Z,99357.84
2024-04-15T17:02:27.487Z,99349.97
2024-04-15T17:04:54.287Z,99349.06
2024-04-15T17:07:21.259Z,99339.84
2024-04-15T17:09:48.591Z,99337.69
2024-04-15T17:12:15.254Z,99338.00
2024-04-15T17:14:42.011Z,99339.34
2024-04-15T17:17:11.766Z,99331.28
2024-04-15T17:19:39.336Z,99335.25
2024-04-15T17:22:06.150Z,99325.44
2024-04-15T17:24:32.865Z,99325.75
2024-04-15T17:26:59.882Z,99310.13
2024-04-15T17:29:27.278Z,99310.75
2024-04-15T17:31:54.419Z,99297.47
2024-04-15T17:34:21.173Z,99291.19
2024-04-15T17:36:47.997Z,99295.59
2024-04-15T17:39:14.709Z,99280.94
2024-04-15T17:41:41.352Z,99278.41
2024-04-15T17:44:09.174Z,99284.91
2024-04-15T17:46:37.060Z,99268.00
2024-04-15T17:49:03.742Z,99262.25
2024-04-15T17:51:30.446Z,99256.94
2024-04-15T17:53:57.069Z,99258.22
2024-04-15T17:56:24.071Z,99256.56
2024-04-15T17:58:50.876Z,99243.81
2024-04-15T18:01:17.663Z,99247.56
2024-04-15T18:03:45.782Z,99248.19
2024-04-15T18:06:12.742Z,99238.19
2024-04-15T18:08:39.927Z,99234.72
2024-04-15T18:11:06.694Z,99225.22
2024-04-15T18:13:33.516Z,99226.59
2024-04-15T18:16:00.708Z,99222.38
2024-04-15T18:18:30.362Z,99212.91
2024-04-15T18:20:59.022Z,99218.31
2024-04-15T18:23:25.872Z,99211.81
2024-04-15T18:25:52.784Z,99207.72
2024-04-15T18:28:20.102Z,99203.25
2024-04-15T18:30:46.854Z,99204.88
2024-04-15T18:33:13.495Z,99208.75
2024-04-15T18:35:40.313Z,99198.03
2024-04-15T18:38:08.552Z,99198.94
2024-04-15T18:40:35.366Z,99201.41
2024-04-15T18:43:02.244Z,99189.41
2024-04-15T18:45:28.992Z,99186.69
2024-04-15T18:47:55.733Z,99189.34
2024-04-15T18:50:24.063Z,99182.91
2024-04-15T18:52:50.851Z,99188.88
2024-04-15T18:55:17.635Z,99190.63
2024-04-15T18:57:44.492Z,99192.63
2024-04-15T19:00:11.782Z,99189.50
2024-04-15T19:02:38.494Z,99191.00
2024-04-15T19:05:05.464Z,99188.13
2024-04-15T19:07:32.248Z,99176.88
2024-04-15T19:09:59.028Z,99185.22
2024-04-15T19:12:25.653Z,99172.31
2024-04-15T19:15:05.666Z,99166.88
2024-04-15T19:17:38.960Z,99174.25
2024-04-15T19:20:06.212Z,99161.88
2024-04-15T19:22:33.068Z,99168.88
2024-04-15T19:24:59.770Z,99170.78
2024-04-15T19:27:26.496Z,99211.19
2024-04-15T19:29:53.807Z,99213.13
2024-04-15T19:32:20.667Z,99228.50
2024-04-15T19:34:49.228Z,99228.19
2024-04-15T19:37:16.032Z,99227.66
2024-04-15T19:39:43.053Z,99234.94
2024-04-15T19:42:09.692Z,99230.63
2024-04-15T19:44:36.352Z,99235.69
2024-04-15T19:47:03.276Z,99225.41
2024-04-15T19:49:30.072Z,99224.97
2024-04-15T19:51:56.904Z,99228.66
2024-04-15T19:54:23.618Z,99225.13
2024-04-15T19:56:51.162Z,99225.63
2024-04-15T19:59:17.847Z,99231.91
2024-04-15T20:01:44.640Z,99228.22
2024-04-15T20:04:11.400Z,99220.72
2024-04-15T20:06:38.136Z,99210.13
2024-04-15T20:09:05.164Z,99223.28
2024-04-15T20:11:31.987Z,99215.47
2024-04-15T20:13:58.672Z,99209.31
2024-04-15T20:16:25.348Z,99212.28
2024-04-15T20:18:55.557Z,99213.22
2024-04-15T20:21:22.404Z,99210.59
2024-04-15T20:23:49.327Z,99210.28
2024-04-15T20:26:16.097Z,99210.28
2024-04-15T20:28:42.714Z,99203.94
2024-04-15T20:31:09.456Z,99204.88
2024-04-15T20:33:36.207Z,99216.03
2024-04-15T20:36:03.582Z,99216.25
2024-04-15T20:38:31.556Z,99217.34
2024-04-15T20:40:59.406Z,99212.06
2024-04-15T20:43:26.213Z,99218.41
2024-04-15T20:45:52.985Z,99220.56
2024-04-15T20:48:19.647Z,99216.28
2024-04-15T20:50:46.320Z,99225.41
2024-04-15T20:53:13.043Z,99220.78
2024-04-15T20:55:39.896Z,99216.00
2024-04-15T20:58:06.850Z,99218.38
2024-04-15T21:00:33.537Z,99216.56
2024-04-15T21:03:01.890Z,99230.56
2024-04-15T21:05:28.558Z,99221.69
2024-04-15T21:07:55.293Z,99203.41
2024-04-15T21:10:23.916Z,99213.63
2024-04-15T21:12:50.769Z,99209.25
2024-04-15T21:15:17.610Z,99210.16
2024-04-15T21:17:44.299Z,99209.34
2024-04-15T21:20:11.051Z,99200.66
2024-04-15T21:22:37.942Z,99204.19
2024-04-15T21:25:05.113Z,99213.38
2024-04-15T21:27:31.823Z,99228.41
2024-04-15T21:29:58.640Z,99218.88
2024-04-15T21:32:25.470Z,99206.63
2024-04-15T21:34:52.162Z,99216.28
2024-04-15T21:37:18.861Z,99212.03
2024-04-15T21:39:46.532Z,99213.09
2024-04-15T21:42:13.383Z,99207.97
2024-04-15T21:44:40.027Z,99208.53
2024-04-15T21:47:10.704Z,99210.91
2024-04-15T21:49:37.964Z,99208.78
2024-04-15T21:52:05.135Z,99206.16
2024-04-15T21:54:32.036Z,99206.59
2024-04-15T21:57:01.767Z,99213.84
2024-04-15T21:59:29.317Z,99207.19
2024-04-15T22:01:56.116Z,99210.66
2024-04-15T22:04:23.250Z,99205.53
2024-04-15T22:06:49.936Z,99200.19
2024-04-15T22:09:17.473Z,99210.91
2024-04-15T22:11:44.356Z,99205.03
2024-04-15T22:14:11.035Z,99209.91
2024-04-15T22:16:37.804Z,99204.75
2024-04-15T22:19:04.604Z,99199.66
2024-04-15T22:21:31.259Z,99198.31
2024-04-15T22:23:57.940Z,99192.63
2024-04-15T22:26:24.634Z,99200.72
2024-04-15T22:28:51.266Z,99196.94
2024-04-15T22:31:17.998Z,99196.41
2024-04-15T22:33:44.739Z,99195.84
2024-04-15T22:36:11.448Z,99206.13
2024-04-15T22:38:38.075Z,99209.63
2024-04-15T22:41:04.806Z,99213.28
2024-04-15T22:43:31.557Z,99222.75
2024-04-15T22:45:58.224Z,99229.75
2024-04-15T22:48:24.906Z,99227.06
2024-04-15T22:50:51.617Z,99232.66
2024-04-15T22:53:18.305Z,99237.56
2024-04-15T22:55:45.185Z,99237.81
2024-04-15T22:58:11.898Z,99236.81
2024-04-15T23:00:38.521Z,99238.63
2024-04-15T23:03:05.389Z,99234.09
2024-04-15T23:05:32.061Z,99233.56
2024-04-15T23:07:59.610Z,99237.88
2024-04-15T23:10:26.400Z,99235.63
2024-04-15T23:12:53.093Z,99243.75
2024-04-15T23:15:19.734Z,99234.00
2024-04-15T23:17:46.521Z,99237.84
2024-04-15T23:20:13.229Z,99249.38
2024-04-15T23:22:39.876Z,99249.28
2024-04-15T23:25:09.643Z,99248.94
2024-04-15T23:27:39.772Z,99241.88
2024-04-15T23:30:07.123Z,99239.50
2024-04-15T23:32:33.969Z,99245.88
2024-04-15T23:35:00.708Z,99245.94
2024-04-15T23:37:27.429Z,99256.38
2024-04-15T23:39:54.664Z,99257.13
2024-04-15T23:42:21.504Z,99255.31
2024-04-15T23:44:48.121Z,99245.75
2024-04-15T23:47:14.816Z,99245.84
2024-04-15T23:49:42.022Z,99252.03
2024-04-15T23:52:08.776Z,99243.66
2024-04-15T23:54:35.434Z,99247.78
2024-04-15T23:57:02.149Z,99240.88
2024-04-15T23:59:28.826Z,99238.81
